Time;durP1;ratioP1;P1;durP2;ratioP2;P2;SDS_P1;SDS_P2;PMS_P1;PMS_P2;Temp;Humidity;BMP_temperature;BMP_pressure;BME280_temperature;BME280_humidity;BME280_pressure;Samples;Min_cycle;Max_cycle;Signal;HPM_P1;HPM_P2
2023/12/30 00:01:47;;;;;;;13.18;3.65;;;9.30;99.90;;;;;;5053207;28;20083;-65
2023/12/30 00:04:13;;;;;;;17.90;3.85;;;9.40;99.90;;;;;;5053211;28;20021;-65
2023/12/30 00:06:39;;;;;;;18.33;4.47;;;9.30;99.90;;;;;;5053284;28;20108;-65
2023/12/30 00:09:05;;;;;;;16.92;4.82;;;9.30;99.90;;;;;;5053031;28;20021;-66
2023/12/30 00:11:31;;;;;;;19.17;4.22;;;9.20;99.90;;;;;;5052840;28;20526;-66
2023/12/30 00:13:56;;;;;;;19.27;4.25;;;9.20;99.90;;;;;;5053199;28;20029;-65
2023/12/30 00:16:22;;;;;;;14.48;4.03;;;9.10;99.90;;;;;;5053339;28;20022;-66
2023/12/30 00:18:47;;;;;;;12.18;4.30;;;9.20;99.90;;;;;;5053184;28;20025;-65
2023/12/30 00:21:18;;;;;;;16.75;4.85;;;9.10;99.90;;;;;;5053119;28;20025;-65
2023/12/30 00:23:44;;;;;;;20.13;3.95;;;9.20;99.90;;;;;;5053084;28;20022;-65
2023/12/30 00:26:22;;;;;;;14.25;4.40;;;9.20;99.90;;;;;;5052982;28;20029;-65
2023/12/30 00:28:48;;;;;;;18.08;4.07;;;9.20;99.90;;;;;;5035469;28;20025;-64
2023/12/30 00:31:30;;;;;;;20.63;4.90;;;9.20;99.90;;;;;;5053122;28;20086;-64
2023/12/30 00:33:58;;;;;;;16.85;4.85;;;9.20;99.90;;;;;;5052923;28;20036;-65
2023/12/30 00:36:25;;;;;;;13.80;3.88;;;9.30;99.90;;;;;;5052920;28;20021;-64
2023/12/30 00:38:54;;;;;;;14.98;4.38;;;9.30;99.90;;;;;;5035249;28;20185;-65
2023/12/30 00:41:21;;;;;;;23.23;4.22;;;9.30;99.90;;;;;;5052746;28;20375;-64
2023/12/30 00:43:47;;;;;;;19.80;4.65;;;9.40;99.90;;;;;;5053040;28;20033;-65
2023/12/30 00:46:13;;;;;;;15.65;4.25;;;9.30;99.90;;;;;;5053039;28;20410;-64
2023/12/30 00:48:38;;;;;;;15.15;4.30;;;9.30;99.90;;;;;;5052983;28;20025;-64
2023/12/30 00:51:04;;;;;;;15.48;4.45;;;9.30;99.90;;;;;;5052636;28;20024;-64
2023/12/30 00:53:30;;;;;;;11.23;3.17;;;9.20;99.90;;;;;;5052719;28;20486;-65
2023/12/30 00:55:56;;;;;;;7.07;1.83;;;9.10;99.90;;;;;;5052806;28;20474;-65
2023/12/30 00:58:22;;;;;;;6.28;1.90;;;8.60;99.90;;;;;;5052727;28;20025;-64
2023/12/30 01:00:49;;;;;;;8.05;1.95;;;8.20;99.90;;;;;;5052513;28;20075;-64
2023/12/30 01:03:15;;;;;;;7.78;1.98;;;8.10;99.90;;;;;;5034922;28;20483;-64
2023/12/30 01:05:40;;;;;;;7.72;2.10;;;8.00;99.90;;;;;;5052365;28;20086;-64
2023/12/30 01:08:06;;;;;;;6.13;1.90;;;8.10;99.90;;;;;;5052557;28;20029;-64
2023/12/30 01:10:32;;;;;;;5.00;1.60;;;8.10;99.90;;;;;;5052534;28;20029;-66
2023/12/30 01:12:57;;;;;;;5.65;1.50;;;8.00;99.90;;;;;;5052527;28;20090;-64
2023/12/30 01:15:23;;;;;;;5.32;1.90;;;7.90;99.90;;;;;;5052764;28;20029;-64
2023/12/30 01:17:48;;;;;;;2.40;1.15;;;7.80;99.90;;;;;;5052527;28;20051;-64
2023/12/30 01:20:14;;;;;;;3.35;1.30;;;7.60;99.90;;;;;;5055215;28;20033;-64
2023/12/30 01:22:39;;;;;;;5.47;1.27;;;7.50;99.90;;;;;;5055901;28;20115;-64
2023/12/30 01:25:05;;;;;;;8.70;1.17;;;7.40;99.90;;;;;;5056048;28;20032;-64
2023/12/30 01:27:31;;;;;;;3.63;1.30;;;7.30;99.90;;;;;;5055992;28;20032;-64
2023/12/30 01:29:57;;;;;;;5.28;1.23;;;7.20;99.90;;;;;;5055976;28;20479;-64
2023/12/30 01:32:22;;;;;;;3.15;1.10;;;7.20;99.90;;;;;;5055846;28;20483;-63
2023/12/30 01:34:47;;;;;;;5.97;1.10;;;7.20;99.90;;;;;;5055687;28;20119;-64
2023/12/30 01:37:13;;;;;;;5.60;1.25;;;7.20;99.90;;;;;;5055899;28;20029;-64
2023/12/30 01:39:38;;;;;;;5.18;1.27;;;7.20;99.90;;;;;;5055727;28;20024;-64
2023/12/30 01:42:04;;;;;;;6.57;1.77;;;7.20;99.90;;;;;;5055699;28;20025;-64
2023/12/30 01:44:30;;;;;;;3.08;1.10;;;7.20;99.90;;;;;;5056064;28;20040;-64
2023/12/30 01:46:56;;;;;;;7.05;1.23;;;7.00;99.90;;;;;;5055938;28;20040;-65
2023/12/30 01:49:22;;;;;;;4.00;1.63;;;6.90;99.90;;;;;;5055797;28;20418;-64
2023/12/30 01:51:49;;;;;;;5.38;1.50;;;6.90;99.90;;;;;;5055591;28;20029;-64
2023/12/30 01:54:17;;;;;;;7.32;1.58;;;6.80;99.90;;;;;;5055725;28;20021;-64
2023/12/30 01:56:43;;;;;;;5.07;1.15;;;6.70;99.90;;;;;;5055244;28;20055;-64
2023/12/30 01:59:11;;;;;;;3.88;1.00;;;6.60;99.90;;;;;;5055757;28;20112;-64
2023/12/30 02:01:36;;;;;;;3.92;1.25;;;6.50;99.90;;;;;;5055478;28;20386;-64
2023/12/30 02:04:02;;;;;;;7.85;1.38;;;6.40;99.90;;;;;;5055114;28;20025;-65
2023/12/30 02:06:27;;;;;;;5.40;1.27;;;6.30;99.90;;;;;;5055395;28;20021;-64
2023/12/30 02:08:53;;;;;;;5.38;1.77;;;6.20;99.90;;;;;;5055551;28;20040;-64
2023/12/30 02:11:19;;;;;;;9.88;1.35;;;6.20;99.90;;;;;;5055080;28;20415;-65
2023/12/30 02:13:45;;;;;;;3.95;1.20;;;6.20;99.90;;;;;;5055548;28;20390;-64
2023/12/30 02:16:11;;;;;;;4.85;1.20;;;6.20;99.90;;;;;;5055098;28;20025;-64
2023/12/30 02:18:37;;;;;;;5.05;1.30;;;6.20;99.90;;;;;;5055209;28;20056;-64
2023/12/30 02:21:04;;;;;;;8.68;1.38;;;6.10;99.90;;;;;;5055061;28;20021;-64
2023/12/30 02:23:29;;;;;;;9.52;1.55;;;6.10;99.90;;;;;;5055298;28;20027;-64
2023/12/30 02:25:55;;;;;;;6.30;1.42;;;6.10;99.90;;;;;;5054704;28;20025;-64
2023/12/30 02:28:20;;;;;;;4.47;1.52;;;6.10;99.90;;;;;;5055063;28;20037;-64
2023/12/30 02:30:46;;;;;;;3.67;1.40;;;6.10;99.90;;;;;;5054883;28;20036;-64
2023/12/30 02:33:11;;;;;;;8.63;1.65;;;6.00;99.90;;;;;;5054898;28;20029;-64
2023/12/30 02:35:37;;;;;;;4.75;1.65;;;6.00;99.90;;;;;;5054891;28;20025;-64
2023/12/30 02:38:03;;;;;;;3.85;1.80;;;6.00;99.90;;;;;;5054625;28;20021;-64
2023/12/30 02:40:28;;;;;;;8.93;2.10;;;5.90;99.90;;;;;;5054382;28;20071;-64
2023/12/30 02:42:54;;;;;;;7.50;2.28;;;5.90;99.90;;;;;;5054745;28;20032;-64
2023/12/30 02:45:19;;;;;;;7.07;2.33;;;5.90;99.90;;;;;;5054317;28;20116;-65
2023/12/30 02:47:45;;;;;;;3.95;1.77;;;5.80;99.90;;;;;;5054680;28;20025;-64
2023/12/30 02:50:10;;;;;;;5.25;1.70;;;5.90;99.90;;;;;;5054493;28;20449;-64
2023/12/30 02:52:36;;;;;;;5.18;2.22;;;5.80;99.90;;;;;;5054433;28;20029;-64
2023/12/30 02:55:04;;;;;;;12.98;2.65;;;5.80;99.90;;;;;;5054578;28;20025;-64
2023/12/30 02:57:30;;;;;;;12.27;2.97;;;5.90;99.90;;;;;;5054174;28;20021;-64
2023/12/30 02:59:55;;;;;;;10.38;2.65;;;6.00;99.90;;;;;;5054297;28;20071;-65
2023/12/30 03:02:21;;;;;;;11.70;3.30;;;6.10;99.90;;;;;;5054431;28;20102;-65
2023/12/30 03:04:46;;;;;;;12.00;3.20;;;6.10;99.90;;;;;;5054235;28;20542;-64
2023/12/30 03:07:12;;;;;;;20.13;3.28;;;6.20;99.90;;;;;;5054234;28;20478;-64
2023/12/30 03:09:37;;;;;;;18.83;4.60;;;6.40;99.90;;;;;;5054271;28;20109;-64
2023/12/30 03:12:03;;;;;;;17.02;3.97;;;6.50;99.90;;;;;;5053848;28;20081;-64
2023/12/30 03:14:29;;;;;;;16.67;4.30;;;6.60;99.90;;;;;;5054656;28;20071;-64
2023/12/30 03:16:54;;;;;;;15.60;3.63;;;6.80;99.90;;;;;;5054248;28;20094;-64
2023/12/30 03:19:20;;;;;;;17.52;4.70;;;6.90;99.90;;;;;;5054273;28;20033;-69
2023/12/30 03:21:45;;;;;;;11.38;3.78;;;7.10;99.90;;;;;;5054016;28;20041;-70
2023/12/30 03:24:11;;;;;;;19.58;4.55;;;7.30;99.90;;;;;;5053923;28;20032;-70
2023/12/30 03:26:37;;;;;;;15.65;4.95;;;7.50;99.90;;;;;;5053467;28;20035;-70
2023/12/30 03:29:03;;;;;;;16.88;4.07;;;7.60;99.90;;;;;;5053751;28;20036;-70
2023/12/30 03:31:28;;;;;;;16.60;4.78;;;7.60;99.90;;;;;;5053840;28;20044;-70
2023/12/30 03:33:55;;;;;;;16.67;4.55;;;7.60;99.90;;;;;;5053764;28;20028;-70
2023/12/30 03:36:21;;;;;;;15.60;4.85;;;7.70;99.90;;;;;;5053658;28;20221;-70
2023/12/30 03:38:48;;;;;;;21.42;4.70;;;7.80;99.90;;;;;;5053708;28;20137;-70
2023/12/30 03:41:15;;;;;;;21.98;5.32;;;7.80;99.90;;;;;;5053406;28;20471;-70
2023/12/30 03:43:40;;;;;;;14.90;4.28;;;7.70;99.90;;;;;;5053048;28;20087;-70
2023/12/30 03:46:06;;;;;;;12.13;4.35;;;7.70;99.90;;;;;;5053639;28;20489;-70
2023/12/30 03:48:32;;;;;;;14.10;4.00;;;7.70;99.90;;;;;;5053183;28;20467;-70
2023/12/30 03:50:58;;;;;;;21.02;4.30;;;7.70;99.90;;;;;;5053652;28;20029;-70
2023/12/30 03:53:24;;;;;;;19.40;3.92;;;7.70;99.90;;;;;;5053278;28;20087;-70
2023/12/30 03:55:49;;;;;;;18.63;4.60;;;7.70;99.90;;;;;;5053497;28;20025;-70
2023/12/30 03:58:15;;;;;;;19.98;4.78;;;7.80;99.90;;;;;;5053095;28;20017;-70
2023/12/30 04:00:40;;;;;;;19.52;4.22;;;7.70;99.90;;;;;;5053374;28;20032;-70
2023/12/30 04:03:06;;;;;;;18.85;4.88;;;7.70;99.90;;;;;;5053327;28;20032;-70
2023/12/30 04:05:31;;;;;;;20.98;5.03;;;7.70;99.90;;;;;;5052993;28;20075;-70
2023/12/30 04:07:57;;;;;;;18.23;5.20;;;7.70;99.90;;;;;;5053412;28;20498;-70
2023/12/30 04:10:24;;;;;;;20.15;4.85;;;7.60;99.90;;;;;;5052881;28;20029;-70
2023/12/30 04:12:50;;;;;;;18.65;4.80;;;7.70;99.90;;;;;;5052890;28;20128;-69
2023/12/30 04:15:15;;;;;;;18.77;4.82;;;7.60;99.90;;;;;;5053144;28;20067;-70
2023/12/30 04:17:41;;;;;;;13.00;4.85;;;7.70;99.90;;;;;;5053217;28;20029;-70
2023/12/30 04:20:07;;;;;;;15.32;4.40;;;7.70;99.90;;;;;;5053104;28;20036;-70
2023/12/30 04:22:33;;;;;;;16.35;5.30;;;7.60;99.90;;;;;;5053032;28;20075;-70
2023/12/30 04:24:59;;;;;;;21.15;4.45;;;7.60;99.90;;;;;;5053123;28;20029;-70
2023/12/30 04:27:25;;;;;;;16.48;5.00;;;7.60;99.90;;;;;;5053052;28;20032;-69
2023/12/30 04:29:51;;;;;;;13.85;4.50;;;7.70;99.90;;;;;;5053075;28;20032;-69
2023/12/30 04:32:16;;;;;;;16.45;4.90;;;7.60;99.90;;;;;;5053042;28;20372;-70
2023/12/30 04:34:42;;;;;;;17.52;4.85;;;7.60;99.90;;;;;;5053085;28;20025;-70
2023/12/30 04:37:07;;;;;;;15.68;5.18;;;7.60;99.90;;;;;;5052888;28;20029;-70
2023/12/30 04:39:33;;;;;;;20.08;5.05;;;7.60;99.90;;;;;;5053051;28;20109;-70
2023/12/30 04:41:59;;;;;;;21.17;4.32;;;7.60;99.90;;;;;;5052936;28;20022;-70
2023/12/30 04:44:25;;;;;;;19.45;4.80;;;7.60;99.90;;;;;;5052845;28;20501;-70
2023/12/30 04:46:50;;;;;;;13.63;4.97;;;7.50;99.90;;;;;;5052706;28;20119;-70
2023/12/30 04:49:16;;;;;;;18.45;5.65;;;7.60;99.90;;;;;;5052939;28;20036;-70
2023/12/30 04:51:41;;;;;;;16.38;5.00;;;7.60;99.90;;;;;;5052675;28;20032;-70
2023/12/30 04:54:07;;;;;;;18.33;4.47;;;7.70;99.90;;;;;;5054242;28;20021;-70
2023/12/30 04:56:32;;;;;;;22.95;4.85;;;7.70;99.90;;;;;;5056722;28;20025;-70
2023/12/30 04:58:59;;;;;;;20.45;5.22;;;7.70;99.90;;;;;;5056629;28;20142;-70
2023/12/30 05:01:25;;;;;;;16.00;4.75;;;7.70;99.90;;;;;;5056616;28;20025;-70
2023/12/30 05:03:50;;;;;;;18.20;5.43;;;7.70;99.90;;;;;;5056615;28;20029;-70
2023/12/30 05:06:21;;;;;;;13.50;4.43;;;7.70;99.90;;;;;;5056663;28;20079;-70
2023/12/30 05:08:47;;;;;;;21.20;5.15;;;7.70;99.90;;;;;;5056471;28;20478;-71
2023/12/30 05:11:13;;;;;;;17.35;4.75;;;7.70;99.90;;;;;;5056001;28;20131;-71
2023/12/30 05:13:39;;;;;;;18.35;5.10;;;7.70;99.90;;;;;;5056430;28;20108;-71
2023/12/30 05:16:05;;;;;;;14.80;4.65;;;7.70;99.90;;;;;;5056425;28;20033;-70
2023/12/30 05:18:30;;;;;;;20.13;4.45;;;7.70;99.90;;;;;;5056499;28;20040;-71
2023/12/30 05:20:56;;;;;;;13.68;4.05;;;7.80;99.90;;;;;;5055897;28;20025;-70
2023/12/30 05:23:21;;;;;;;12.82;3.47;;;7.80;99.90;;;;;;5056397;28;20065;-70
2023/12/30 05:25:47;;;;;;;11.70;3.72;;;7.80;99.90;;;;;;5056228;28;20060;-70
2023/12/30 05:28:13;;;;;;;15.18;3.70;;;7.80;99.90;;;;;;5056168;28;20500;-71
2023/12/30 05:30:38;;;;;;;15.73;3.70;;;7.70;99.90;;;;;;5056303;28;20116;-70
2023/12/30 05:33:04;;;;;;;11.25;2.92;;;7.70;99.90;;;;;;5056022;28;20025;-70
2023/12/30 05:35:30;;;;;;;14.38;3.28;;;7.50;99.90;;;;;;5056028;28;20028;-70
2023/12/30 05:37:55;;;;;;;11.40;3.95;;;7.50;99.90;;;;;;5055657;28;20021;-70
2023/12/30 05:40:21;;;;;;;11.65;3.45;;;7.40;99.90;;;;;;5056057;28;20052;-70
2023/12/30 05:42:47;;;;;;;14.10;3.90;;;7.40;99.90;;;;;;5056002;28;20040;-70
2023/12/30 05:45:12;;;;;;;13.82;4.78;;;7.40;99.90;;;;;;5055790;28;20478;-70
2023/12/30 05:47:38;;;;;;;11.70;4.00;;;7.30;99.90;;;;;;5055796;28;20501;-71
2023/12/30 05:50:04;;;;;;;11.25;4.00;;;7.20;99.90;;;;;;5055783;28;20060;-70
2023/12/30 05:52:30;;;;;;;13.98;3.75;;;7.20;99.90;;;;;;5055378;28;20120;-70
2023/12/30 05:54:55;;;;;;;20.80;4.43;;;7.10;99.90;;;;;;5055606;28;20033;-71
2023/12/30 05:57:21;;;;;;;10.82;4.45;;;7.00;99.90;;;;;;5055542;28;20025;-70
2023/12/30 05:59:46;;;;;;;18.58;4.80;;;7.00;99.90;;;;;;5055576;28;20033;-70
2023/12/30 06:02:12;;;;;;;17.55;5.30;;;6.90;99.90;;;;;;5055491;28;20037;-70
2023/12/30 06:04:40;;;;;;;12.70;4.85;;;6.80;99.90;;;;;;5055096;28;20082;-71
2023/12/30 06:07:06;;;;;;;14.55;5.88;;;6.70;99.90;;;;;;5037705;28;20047;-70
2023/12/30 06:09:32;;;;;;;23.52;6.47;;;6.70;99.90;;;;;;5055073;28;20025;-71
2023/12/30 06:11:58;;;;;;;13.88;4.82;;;6.70;99.90;;;;;;5054969;28;20513;-70
2023/12/30 06:14:23;;;;;;;17.33;5.28;;;6.70;99.90;;;;;;5055333;28;20029;-70
2023/12/30 06:16:49;;;;;;;19.08;5.80;;;6.70;99.90;;;;;;5055338;28;20040;-71
2023/12/30 06:19:16;;;;;;;16.83;4.72;;;6.70;99.90;;;;;;5054986;28;20029;-70
2023/12/30 06:21:42;;;;;;;16.02;5.18;;;6.70;99.90;;;;;;5055206;28;20162;-71
2023/12/30 06:24:08;;;;;;;22.60;6.00;;;6.70;99.90;;;;;;5055175;28;20032;-70
2023/12/30 06:26:38;;;;;;;18.23;6.05;;;6.60;99.90;;;;;;5055119;28;20395;-70
2023/12/30 06:29:05;;;;;;;24.80;6.72;;;6.60;99.90;;;;;;5055045;28;20029;-70
2023/12/30 06:31:31;;;;;;;17.98;5.13;;;6.60;99.90;;;;;;5054851;28;20037;-71
2023/12/30 06:33:56;;;;;;;18.60;5.70;;;6.60;99.90;;;;;;5054490;28;20025;-70
2023/12/30 06:36:23;;;;;;;24.77;5.32;;;6.60;99.90;;;;;;5054581;28;20461;-69
2023/12/30 06:38:49;;;;;;;20.25;5.00;;;6.70;99.90;;;;;;5054966;28;20025;-71
2023/12/30 06:41:18;;;;;;;22.23;4.93;;;6.70;99.90;;;;;;5054698;28;20025;-70
2023/12/30 06:43:44;;;;;;;17.38;4.40;;;6.60;99.90;;;;;;5054775;28;20057;-70
2023/12/30 06:46:10;;;;;;;13.48;4.63;;;6.70;99.90;;;;;;5054701;28;20017;-71
2023/12/30 06:48:35;;;;;;;22.65;5.50;;;6.60;99.90;;;;;;5054296;28;20043;-71
2023/12/30 06:51:02;;;;;;;26.25;5.78;;;6.60;99.90;;;;;;5054679;28;20359;-71
2023/12/30 06:53:30;;;;;;;30.30;6.45;;;6.60;99.90;;;;;;5054231;28;20031;-71
2023/12/30 06:56:00;;;;;;;30.02;6.13;;;6.70;99.90;;;;;;5054641;28;20493;-71
2023/12/30 06:58:25;;;;;;;28.65;5.93;;;6.70;99.90;;;;;;5054728;28;20174;-70
2023/12/30 07:00:51;;;;;;;24.35;6.35;;;6.70;99.90;;;;;;5054146;28;20115;-71
2023/12/30 07:03:16;;;;;;;23.23;6.95;;;6.80;99.90;;;;;;5054336;28;20118;-71
2023/12/30 07:05:42;;;;;;;25.88;5.88;;;6.80;99.90;;;;;;5054284;28;20037;-70
2023/12/30 07:08:07;;;;;;;23.33;6.88;;;6.80;99.90;;;;;;5054004;28;20075;-71
2023/12/30 07:10:33;;;;;;;23.92;5.90;;;6.80;99.90;;;;;;5053900;28;20037;-69
2023/12/30 07:12:58;;;;;;;25.67;6.30;;;6.70;99.90;;;;;;5054030;28;20033;-70
2023/12/30 07:15:24;;;;;;;22.80;7.25;;;6.80;99.90;;;;;;5053856;28;20474;-70
2023/12/30 07:17:49;;;;;;;23.95;6.13;;;6.70;99.90;;;;;;5053175;28;20071;-70
2023/12/30 07:20:15;;;;;;;16.55;5.80;;;6.70;99.90;;;;;;5053899;28;20033;-70
2023/12/30 07:22:41;;;;;;;19.40;5.20;;;6.70;99.90;;;;;;5053931;28;20044;-71
2023/12/30 07:25:07;;;;;;;26.27;6.07;;;6.70;99.90;;;;;;5053949;28;20029;-71
2023/12/30 07:27:32;;;;;;;17.65;5.88;;;6.70;99.90;;;;;;5054007;28;20112;-70
2023/12/30 07:29:58;;;;;;;23.48;5.55;;;6.60;99.90;;;;;;5053895;28;20071;-70
2023/12/30 07:32:24;;;;;;;20.60;5.97;;;6.60;99.90;;;;;;5053513;28;20055;-70
2023/12/30 07:34:49;;;;;;;15.65;5.03;;;6.60;99.90;;;;;;5053712;28;20103;-70
2023/12/30 07:37:15;;;;;;;19.67;5.75;;;6.60;99.90;;;;;;5053325;28;20107;-70
2023/12/30 07:39:40;;;;;;;19.05;4.90;;;6.60;99.90;;;;;;5053706;28;20528;-70
2023/12/30 07:42:06;;;;;;;22.80;4.57;;;6.60;99.90;;;;;;5053710;28;20364;-70
2023/12/30 07:44:34;;;;;;;17.90;4.60;;;6.60;99.90;;;;;;5053655;28;20025;-70
2023/12/30 07:47:00;;;;;;;23.90;4.57;;;6.60;99.90;;;;;;5053109;28;20021;-70
2023/12/30 07:49:26;;;;;;;17.80;4.20;;;6.60;99.90;;;;;;5053349;28;20035;-70
2023/12/30 07:51:53;;;;;;;23.83;5.18;;;6.60;99.90;;;;;;5053583;28;20024;-70
2023/12/30 07:54:18;;;;;;;23.85;4.40;;;6.70;99.90;;;;;;5053666;28;20027;-70
2023/12/30 07:56:44;;;;;;;21.05;4.72;;;6.70;99.90;;;;;;5053477;28;20107;-71
2023/12/30 07:59:12;;;;;;;18.88;4.68;;;6.80;99.90;;;;;;5053545;28;20029;-70
2023/12/30 08:01:43;;;;;;;23.80;4.63;;;6.80;99.90;;;;;;5053076;28;20051;-70
2023/12/30 08:04:08;;;;;;;23.08;4.28;;;6.90;99.90;;;;;;5053475;28;20032;-70
2023/12/30 08:06:33;;;;;;;18.15;4.25;;;7.00;99.90;;;;;;5053341;28;20360;-70
2023/12/30 08:08:59;;;;;;;17.35;4.57;;;7.10;99.90;;;;;;5053382;28;20028;-71
2023/12/30 08:11:25;;;;;;;23.80;4.53;;;7.20;99.90;;;;;;5053080;28;20048;-70
2023/12/30 08:13:50;;;;;;;22.60;4.25;;;7.30;99.90;;;;;;5053068;28;20025;-70
2023/12/30 08:16:16;;;;;;;23.52;4.45;;;7.40;99.90;;;;;;5053225;28;20071;-70
2023/12/30 08:18:41;;;;;;;16.25;3.85;;;7.50;99.90;;;;;;5053031;28;20025;-70
2023/12/30 08:21:07;;;;;;;17.92;4.57;;;7.50;99.90;;;;;;5053284;28;20025;-70
2023/12/30 08:23:32;;;;;;;13.88;3.95;;;7.70;99.90;;;;;;5053259;28;20542;-71
2023/12/30 08:25:58;;;;;;;17.35;4.82;;;7.70;99.90;;;;;;5053250;28;20033;-70
2023/12/30 08:28:23;;;;;;;22.88;4.80;;;7.80;99.90;;;;;;5054746;28;20510;-70
2023/12/30 08:30:51;;;;;;;18.65;4.75;;;7.70;99.90;;;;;;5057365;28;20029;-70
2023/12/30 08:33:16;;;;;;;21.10;5.28;;;7.70;99.90;;;;;;5056977;28;20509;-70
2023/12/30 08:35:42;;;;;;;22.77;4.97;;;7.60;99.90;;;;;;5056896;28;20134;-70
2023/12/30 08:38:08;;;;;;;26.23;4.57;;;7.60;99.90;;;;;;5057196;28;20021;-71
2023/12/30 08:40:33;;;;;;;21.70;4.57;;;7.60;99.90;;;;;;5056977;28;20104;-71
2023/12/30 08:42:59;;;;;;;20.85;5.22;;;7.60;99.90;;;;;;5057207;28;20082;-71
2023/12/30 08:45:24;;;;;;;16.48;4.45;;;7.60;99.90;;;;;;5056781;28;20025;-71
2023/12/30 08:47:50;;;;;;;20.98;5.20;;;7.70;99.90;;;;;;5056664;28;20033;-71
2023/12/30 08:50:15;;;;;;;24.80;5.22;;;7.70;99.90;;;;;;5056876;28;20033;-71
2023/12/30 08:52:41;;;;;;;16.23;4.53;;;7.70;99.90;;;;;;5056819;28;20104;-71
2023/12/30 08:55:11;;;;;;;18.83;4.18;;;7.80;99.90;;;;;;5056445;28;20497;-71
2023/12/30 08:57:38;;;;;;;20.55;4.72;;;7.80;99.90;;;;;;5056835;28;20029;-71
2023/12/30 09:00:08;;;;;;;19.65;4.60;;;7.80;99.90;;;;;;5056721;28;20021;-71
2023/12/30 09:02:37;;;;;;;20.98;4.53;;;7.80;99.90;;;;;;5056796;28;20158;-70
2023/12/30 09:05:04;;;;;;;17.00;4.45;;;7.90;99.90;;;;;;5056131;28;20078;-71
2023/12/30 09:07:31;;;;;;;20.67;4.47;;;7.90;99.90;;;;;;5056626;28;20118;-71
2023/12/30 09:09:57;;;;;;;25.88;5.20;;;7.90;99.90;;;;;;5056560;28;20071;-71
2023/12/30 09:12:23;;;;;;;16.95;4.97;;;8.00;99.90;;;;;;5055816;28;20095;-71
2023/12/30 09:14:49;;;;;;;14.30;4.82;;;8.00;99.90;;;;;;5056259;28;20437;-71
2023/12/30 09:17:14;;;;;;;19.27;4.53;;;8.00;99.90;;;;;;5056346;28;20057;-71
2023/12/30 09:19:40;;;;;;;15.10;4.47;;;8.10;99.90;;;;;;5056416;28;20134;-71
2023/12/30 09:22:07;;;;;;;16.77;4.63;;;8.10;99.90;;;;;;5055918;28;20052;-70
2023/12/30 09:24:33;;;;;;;17.70;5.15;;;8.10;99.90;;;;;;5056207;28;20029;-70
2023/12/30 09:26:59;;;;;;;16.92;4.65;;;8.20;99.90;;;;;;5056320;28;20037;-70
2023/12/30 09:29:25;;;;;;;22.52;5.50;;;8.20;99.90;;;;;;5056337;28;20025;-71
2023/12/30 09:31:51;;;;;;;16.65;5.30;;;8.30;99.90;;;;;;5056099;28;20449;-71
2023/12/30 09:34:16;;;;;;;21.30;5.50;;;8.30;99.90;;;;;;5055658;28;20032;-71
2023/12/30 09:36:42;;;;;;;15.55;5.28;;;8.30;99.90;;;;;;5055654;28;20483;-71
2023/12/30 09:39:11;;;;;;;14.60;4.30;;;8.40;99.90;;;;;;5055746;28;20029;-71
2023/12/30 09:41:40;;;;;;;15.82;4.38;;;8.40;99.90;;;;;;5055625;28;20494;-71
2023/12/30 09:44:06;;;;;;;22.42;4.85;;;8.40;99.90;;;;;;5055925;28;20482;-70
2023/12/30 09:46:35;;;;;;;17.27;5.55;;;8.50;99.90;;;;;;5055843;28;20482;-71
2023/12/30 09:49:02;;;;;;;19.08;4.93;;;8.50;99.90;;;;;;5055839;28;20025;-71
2023/12/30 09:51:30;;;;;;;22.13;5.45;;;8.60;99.90;;;;;;5055265;28;20056;-71
2023/12/30 09:53:56;;;;;;;18.60;4.93;;;8.60;99.90;;;;;;5055748;28;20025;-71
2023/12/30 09:56:24;;;;;;;20.80;4.55;;;8.60;99.90;;;;;;5055723;28;20486;-71
2023/12/30 09:58:49;;;;;;;16.88;5.55;;;8.60;99.90;;;;;;5055715;28;20017;-71
2023/12/30 10:01:16;;;;;;;21.85;5.00;;;8.50;99.90;;;;;;5055585;28;20036;-71
2023/12/30 10:03:42;;;;;;;16.48;4.60;;;8.50;99.90;;;;;;5055557;28;20036;-71
2023/12/30 10:06:12;;;;;;;19.52;4.82;;;8.50;99.90;;;;;;5055525;28;20036;-71
2023/12/30 10:08:38;;;;;;;22.25;5.47;;;8.40;99.90;;;;;;5055442;28;20387;-70
2023/12/30 10:11:08;;;;;;;14.40;4.63;;;8.50;99.90;;;;;;5055207;28;20041;-71
2023/12/30 10:13:37;;;;;;;19.20;4.82;;;8.50;99.90;;;;;;5054799;28;20025;-71
2023/12/30 10:16:05;;;;;;;13.50;4.90;;;8.50;99.90;;;;;;5055324;28;20049;-71
2023/12/30 10:18:32;;;;;;;18.30;5.43;;;8.70;99.90;;;;;;5054834;28;20021;-71
2023/12/30 10:20:58;;;;;;;11.93;4.70;;;8.70;99.90;;;;;;5055199;28;20048;-71
2023/12/30 10:23:26;;;;;;;14.10;4.30;;;8.80;99.90;;;;;;5055179;28;20137;-71
2023/12/30 10:25:52;;;;;;;16.90;5.35;;;8.80;99.90;;;;;;5054839;28;20483;-71
2023/12/30 10:28:18;;;;;;;18.10;4.95;;;8.90;99.90;;;;;;5055050;28;20036;-71
2023/12/30 10:30:44;;;;;;;12.73;4.20;;;8.90;99.90;;;;;;5055030;28;20029;-71
2023/12/30 10:33:12;;;;;;;16.40;5.15;;;8.90;99.90;;;;;;5054846;28;20506;-71
2023/12/30 10:35:39;;;;;;;11.43;3.75;;;9.00;99.90;;;;;;5055036;28;20108;-71
2023/12/30 10:38:07;;;;;;;12.63;4.20;;;9.00;99.90;;;;;;5054770;28;20108;-71
2023/12/30 10:40:33;;;;;;;18.75;5.13;;;9.20;99.90;;;;;;5054784;28;20112;-71
2023/12/30 10:43:00;;;;;;;16.45;4.57;;;9.10;99.90;;;;;;5054804;28;20466;-71
2023/12/30 10:45:26;;;;;;;19.63;5.40;;;9.20;99.90;;;;;;5054785;28;20067;-70
2023/12/30 10:47:55;;;;;;;18.40;4.45;;;9.20;99.90;;;;;;5054793;28;20027;-71
2023/12/30 10:50:23;;;;;;;18.70;4.90;;;9.30;99.90;;;;;;5054830;28;20029;-70
2023/12/30 10:52:55;;;;;;;16.98;4.50;;;9.20;99.90;;;;;;5053341;28;20034;-71
2023/12/30 10:55:24;;;;;;;16.40;5.22;;;9.20;99.90;;;;;;5054197;28;20039;-71
2023/12/30 10:58:00;;;;;;;17.85;5.03;;;9.20;99.90;;;;;;5054286;28;20024;-71
2023/12/30 11:00:27;;;;;;;14.80;4.60;;;9.20;99.90;;;;;;5054559;28;20033;-71
2023/12/30 11:02:53;;;;;;;17.20;4.82;;;9.20;99.90;;;;;;5054450;28;20483;-71
2023/12/30 11:05:29;;;;;;;16.85;5.38;;;9.30;99.90;;;;;;5054320;28;20036;-71
2023/12/30 11:07:55;;;;;;;22.65;5.60;;;9.30;99.90;;;;;;5054332;28;20410;-71
2023/12/30 11:10:21;;;;;;;17.60;5.22;;;9.20;99.90;;;;;;5054110;28;20038;-71
2023/12/30 11:12:47;;;;;;;19.73;5.97;;;9.20;99.90;;;;;;5053739;28;20045;-71
2023/12/30 11:15:32;;;;;;;17.98;5.32;;;9.20;99.90;;;;;;5054231;28;20479;-71
2023/12/30 11:17:58;;;;;;;20.05;5.15;;;9.20;99.90;;;;;;5053725;28;20636;-70
2023/12/30 11:20:30;;;;;;;14.65;4.55;;;9.20;99.90;;;;;;5054207;28;20499;-70
2023/12/30 11:22:59;;;;;;;19.42;4.72;;;9.20;99.90;;;;;;5053696;28;20074;-71
2023/12/30 11:25:34;;;;;;;15.23;5.60;;;9.20;99.90;;;;;;5054059;28;20024;-71
2023/12/30 11:28:13;;;;;;;21.92;5.85;;;9.20;99.90;;;;;;5054037;28;20518;-71
2023/12/30 11:30:41;;;;;;;17.45;5.97;;;9.20;99.90;;;;;;5053497;28;20475;-71
2023/12/30 11:33:07;;;;;;;10.52;4.57;;;9.20;99.90;;;;;;5053717;28;20025;-71
2023/12/30 11:35:33;;;;;;;13.73;4.60;;;9.10;99.90;;;;;;5053867;28;20116;-71
2023/12/30 11:38:01;;;;;;;18.50;5.22;;;9.20;99.90;;;;;;5053894;28;20529;-71
2023/12/30 11:40:28;;;;;;;16.08;5.88;;;9.10;99.90;;;;;;5053682;28;20483;-71
2023/12/30 11:42:54;;;;;;;11.05;4.15;;;9.20;99.90;;;;;;5053698;28;20082;-71
2023/12/30 11:45:21;;;;;;;17.05;4.80;;;9.20;99.90;;;;;;5053628;28;20478;-71
2023/12/30 11:47:47;;;;;;;17.75;4.93;;;9.10;99.90;;;;;;5053607;28;20036;-71
2023/12/30 11:50:13;;;;;;;21.63;5.05;;;9.20;99.90;;;;;;5053422;28;20368;-71
2023/12/30 11:52:46;;;;;;;19.70;4.93;;;9.20;99.90;;;;;;5053479;28;20036;-71
2023/12/30 11:55:11;;;;;;;19.83;4.83;;;9.20;99.90;;;;;;5053424;28;20562;-71
2023/12/30 11:57:37;;;;;;;17.92;5.85;;;9.20;99.90;;;;;;5053480;28;20025;-71
2023/12/30 12:00:06;;;;;;;21.83;5.15;;;9.30;99.90;;;;;;5053494;28;20025;-71
2023/12/30 12:02:32;;;;;;;23.88;4.93;;;9.30;99.90;;;;;;5052699;28;20051;-70
2023/12/30 12:04:58;;;;;;;15.88;4.57;;;9.30;99.90;;;;;;5053325;28;20029;-71
2023/12/30 12:07:23;;;;;;;15.13;4.57;;;9.30;99.90;;;;;;5053391;28;20426;-71
2023/12/30 12:09:49;;;;;;;15.15;4.45;;;9.30;99.90;;;;;;5053284;28;20048;-71
2023/12/30 12:12:21;;;;;;;19.55;5.22;;;9.30;99.90;;;;;;5052906;28;20053;-71
2023/12/30 12:14:50;;;;;;;17.02;5.03;;;9.30;99.90;;;;;;5053341;28;20045;-71
2023/12/30 12:17:18;;;;;;;15.45;4.57;;;9.40;99.90;;;;;;5052928;28;20020;-71
2023/12/30 12:19:45;;;;;;;17.48;4.30;;;9.40;99.90;;;;;;5053299;28;20080;-71
2023/12/30 12:22:12;;;;;;;20.00;4.85;;;9.40;99.90;;;;;;5053307;28;20562;-71
2023/12/30 12:24:38;;;;;;;21.05;4.93;;;9.50;99.90;;;;;;5053050;28;20047;-71
2023/12/30 12:27:04;;;;;;;18.70;4.80;;;9.50;99.90;;;;;;5053262;28;20021;-71
2023/12/30 12:29:30;;;;;;;21.13;4.60;;;9.50;99.90;;;;;;5053100;28;20501;-72
2023/12/30 12:31:56;;;;;;;15.50;4.07;;;9.50;99.90;;;;;;5052976;28;20029;-71
2023/12/30 12:34:23;;;;;;;18.80;4.45;;;9.50;99.90;;;;;;5053071;28;20119;-71
2023/12/30 12:36:49;;;;;;;21.05;4.72;;;9.50;99.90;;;;;;5053102;28;20021;-71
2023/12/30 12:39:16;;;;;;;16.50;3.80;;;9.50;99.90;;;;;;5053000;28;20028;-71
2023/12/30 12:41:42;;;;;;;20.88;4.47;;;9.60;99.90;;;;;;5052970;28;20119;-71
2023/12/30 12:44:07;;;;;;;12.10;4.32;;;9.60;99.90;;;;;;5053057;28;20178;-71